CPA613 VHHH-ZZZZ
Flight info
| Callsign | CPA613 |
|---|---|
| Flight time | N/A |
| Altitude | 5000 |
| Route | RAMEN DCT LIMES |
| Aircraft | B77W/H-SDE1E2E3FGHIJ2J3J4J5M1RWXY/LB1D1 |
Departure
| Time | 2026-05-07 08:33 |
|---|---|
| Airport | Hong Kong International Airport (VHHH) |
Arrival
| Time | N/A |
|---|---|
| Airport | ZZZZ |
| Time | Latitude | Longitude | Altitude | Speed | Heading |
|---|---|---|---|---|---|
| 2026-05-07 07:52 | 22.30096 | 113.90083 | 40 ft | 0 kts | 161° |
| 2026-05-07 08:23 | 22.30105 | 113.90080 | 41 ft | 4 kts | 161° |
| 2026-05-07 08:23 | 22.30130 | 113.90070 | 40 ft | 4 kts | 160° |
| 2026-05-07 08:23 | 22.30151 | 113.90062 | 40 ft | 4 kts | 169° |
| 2026-05-07 08:23 | 22.30174 | 113.90065 | 39 ft | 4 kts | 223° |
| 2026-05-07 08:24 | 22.30186 | 113.90087 | 38 ft | 4 kts | 251° |
| 2026-05-07 08:24 | 22.30192 | 113.90106 | 37 ft | 1 kts | 251° |
| 2026-05-07 08:28 | 22.30183 | 113.90074 | 37 ft | 9 kts | 253° |
| 2026-05-07 08:28 | 22.30162 | 113.90002 | 42 ft | 10 kts | 252° |
| 2026-05-07 08:29 | 22.30131 | 113.89934 | 42 ft | 10 kts | 222° |
| 2026-05-07 08:29 | 22.30060 | 113.89934 | 41 ft | 12 kts | 163° |
| 2026-05-07 08:29 | 22.29976 | 113.89959 | 41 ft | 13 kts | 184° |
| 2026-05-07 08:29 | 22.29928 | 113.89883 | 42 ft | 13 kts | 251° |
| 2026-05-07 08:30 | 22.29862 | 113.89843 | 42 ft | 13 kts | 168° |
| 2026-05-07 08:30 | 22.29798 | 113.89867 | 42 ft | 2 kts | 161° |
| 2026-05-07 08:31 | 22.29792 | 113.89869 | 42 ft | 2 kts | 161° |
| 2026-05-07 08:31 | 22.29773 | 113.89876 | 42 ft | 4 kts | 161° |
| 2026-05-07 08:31 | 22.29744 | 113.89887 | 42 ft | 5 kts | 161° |
| 2026-05-07 08:32 | 22.29704 | 113.89902 | 42 ft | 7 kts | 161° |
| 2026-05-07 08:32 | 22.29676 | 113.89955 | 42 ft | 13 kts | 87° |
| 2026-05-07 08:32 | 22.29704 | 113.90055 | 41 ft | 15 kts | 71° |
| 2026-05-07 08:32 | 22.29790 | 113.90324 | 39 ft | 74 kts | 71° |
| 2026-05-07 08:33 | 22.30067 | 113.91177 | 43 ft | 163 kts | 70° |
| 2026-05-07 08:33 | 22.30479 | 113.92494 | 529 ft | 192 kts | 70° |
| 2026-05-07 08:33 | 22.30923 | 113.93847 | 1638 ft | 187 kts | 73° |
| 2026-05-07 08:33 | 22.31370 | 113.95224 | 2389 ft | 208 kts | 73° |
| 2026-05-07 08:34 | 22.31866 | 113.96751 | 3114 ft | 220 kts | 71° |
| 2026-05-07 08:34 | 22.32397 | 113.98317 | 4027 ft | 222 kts | 70° |
| 2026-05-07 08:34 | 22.32923 | 113.99894 | 4632 ft | 224 kts | 70° |
| 2026-05-07 08:34 | 22.33445 | 114.01505 | 4942 ft | 230 kts | 70° |
| 2026-05-07 08:35 | 22.33820 | 114.03195 | 5043 ft | 241 kts | 91° |
| 2026-05-07 08:35 | 22.33340 | 114.05062 | 5172 ft | 283 kts | 123° |
| 2026-05-07 08:35 | 22.31835 | 114.06654 | 5150 ft | 328 kts | 152° |
| 2026-05-07 08:35 | 22.29586 | 114.07404 | 5217 ft | 350 kts | 176° |
| 2026-05-07 08:36 | 22.27225 | 114.07403 | 5190 ft | 326 kts | 182° |
| 2026-05-07 08:36 | 22.25020 | 114.07444 | 5092 ft | 313 kts | 177° |
| 2026-05-07 08:36 | 22.22900 | 114.07682 | 5033 ft | 300 kts | 174° |
| 2026-05-07 08:36 | 22.20874 | 114.07957 | 4997 ft | 287 kts | 174° |
| 2026-05-07 08:37 | 22.19591 | 114.08120 | 4978 ft | 274 kts | 179° |
| 2026-05-07 08:37 | 22.17706 | 114.07765 | 5006 ft | 280 kts | 207° |
| 2026-05-07 08:37 | 22.15881 | 114.05893 | 5002 ft | 270 kts | 242° |
| 2026-05-07 08:37 | 22.15257 | 114.04038 | 5007 ft | 266 kts | 258° |
| 2026-05-07 08:38 | 22.15014 | 114.02707 | 5013 ft | 266 kts | 259° |
| 2026-05-07 08:38 | 22.14681 | 114.00738 | 5013 ft | 268 kts | 260° |
| 2026-05-07 08:38 | 22.14243 | 113.98098 | 5010 ft | 270 kts | 259° |
| 2026-05-07 08:38 | 22.14018 | 113.96751 | 5006 ft | 271 kts | 259° |
| 2026-05-07 08:39 | 22.13680 | 113.94750 | 5011 ft | 272 kts | 259° |
| 2026-05-07 08:39 | 22.13335 | 113.92735 | 5004 ft | 273 kts | 259° |
| 2026-05-07 08:39 | 22.12995 | 113.90756 | 5002 ft | 270 kts | 259° |
| 2026-05-07 08:39 | 22.12650 | 113.88769 | 4996 ft | 268 kts | 259° |
| 2026-05-07 08:40 | 22.12330 | 113.86925 | 4997 ft | 265 kts | 259° |
| 2026-05-07 08:40 | 22.12007 | 113.85075 | 5000 ft | 265 kts | 259° |
| 2026-05-07 08:40 | 22.11666 | 113.83124 | 5006 ft | 264 kts | 259° |
| 2026-05-07 08:40 | 22.11330 | 113.81204 | 5010 ft | 256 kts | 259° |
| 2026-05-07 08:41 | 22.11174 | 113.79361 | 4862 ft | 238 kts | 278° |
| 2026-05-07 08:41 | 22.11783 | 113.77767 | 4474 ft | 227 kts | 306° |
| 2026-05-07 08:41 | 22.12853 | 113.76577 | 4128 ft | 216 kts | 323° |
| 2026-05-07 08:41 | 22.14125 | 113.75819 | 3747 ft | 207 kts | 333° |
| 2026-05-07 08:42 | 22.15401 | 113.75198 | 3432 ft | 197 kts | 334° |
| 2026-05-07 08:42 | 22.16649 | 113.74591 | 2945 ft | 198 kts | 334° |
| 2026-05-07 08:42 | 22.17914 | 113.73971 | 2469 ft | 202 kts | 334° |
| 2026-05-07 08:42 | 22.19189 | 113.73338 | 2256 ft | 199 kts | 334° |
| 2026-05-07 08:43 | 22.20432 | 113.72724 | 2114 ft | 193 kts | 334° |
| 2026-05-07 08:43 | 22.21644 | 113.72116 | 2053 ft | 196 kts | 335° |
| 2026-05-07 08:43 | 22.22930 | 113.71620 | 2016 ft | 198 kts | 358° |
| 2026-05-07 08:43 | 22.24225 | 113.72024 | 2033 ft | 197 kts | 38° |
| 2026-05-07 08:44 | 22.25278 | 113.72982 | 1892 ft | 198 kts | 44° |
| 2026-05-07 08:44 | 22.26332 | 113.73960 | 1608 ft | 200 kts | 43° |
| 2026-05-07 08:44 | 22.27357 | 113.74908 | 1547 ft | 189 kts | 44° |
| 2026-05-07 08:44 | 22.28175 | 113.75927 | 1471 ft | 171 kts | 71° |
| 2026-05-07 08:45 | 22.28535 | 113.77120 | 1518 ft | 171 kts | 72° |
| 2026-05-07 08:45 | 22.28956 | 113.78307 | 1521 ft | 167 kts | 73° |
| 2026-05-07 08:45 | 22.29346 | 113.79483 | 1515 ft | 168 kts | 73° |
| 2026-05-07 08:45 | 22.29731 | 113.80676 | 1483 ft | 169 kts | 74° |
| 2026-05-07 08:46 | 22.30116 | 113.81872 | 1230 ft | 164 kts | 75° |